createdAt,value
2023-03-29T00:02:53.285Z,94760.72
2023-03-29T00:08:02.726Z,94767.81
2023-03-29T00:13:05.343Z,94771.91
2023-03-29T00:18:07.579Z,94763.59
2023-03-29T00:23:09.653Z,94766.91
2023-03-29T00:28:14.184Z,94755.25
2023-03-29T00:33:16.226Z,94765.03
2023-03-29T00:38:18.382Z,94762.34
2023-03-29T00:43:21.117Z,94758.91
2023-03-29T00:48:28.239Z,94759.59
2023-03-29T00:53:34.440Z,94786.50
2023-03-29T00:58:55.474Z,94780.13
2023-03-29T01:04:05.305Z,94788.47
2023-03-29T01:09:10.564Z,94777.78
2023-03-29T01:14:23.123Z,94764.59
2023-03-29T01:19:30.522Z,94765.88
2023-03-29T01:24:41.060Z,94767.44
2023-03-29T01:29:51.791Z,94742.13
2023-03-29T01:35:04.230Z,94746.69
2023-03-29T01:40:06.804Z,94740.69
2023-03-29T01:45:27.908Z,94759.88
2023-03-29T01:50:41.470Z,94751.84
2023-03-29T01:55:47.742Z,94749.81
2023-03-29T02:00:54.357Z,94752.47
2023-03-29T02:05:57.829Z,94747.09
2023-03-29T02:11:03.346Z,94751.00
2023-03-29T02:16:13.378Z,94764.19
2023-03-29T02:21:28.591Z,94760.72
2023-03-29T02:26:31.098Z,94741.09
2023-03-29T02:31:41.465Z,94764.00
2023-03-29T02:36:48.122Z,94759.91
2023-03-29T02:41:51.552Z,94742.25
2023-03-29T02:46:57.562Z,94747.16
2023-03-29T02:52:06.918Z,94758.44
2023-03-29T02:57:10.527Z,94759.69
2023-03-29T03:02:14.001Z,94748.78
2023-03-29T03:07:18.454Z,94760.13
2023-03-29T03:12:20.935Z,94754.31
2023-03-29T03:17:25.870Z,94760.75
2023-03-29T03:22:28.170Z,94759.78
2023-03-29T03:27:30.521Z,94734.78
2023-03-29T03:32:35.386Z,94757.41
2023-03-29T03:38:20.344Z,94762.69
2023-03-29T03:43:34.164Z,94762.50
2023-03-29T03:48:37.377Z,94763.25
2023-03-29T03:53:56.593Z,94765.44
2023-03-29T03:59:11.800Z,94770.75
2023-03-29T04:04:36.715Z,94768.41
2023-03-29T04:09:49.024Z,94772.28
2023-03-29T04:15:07.922Z,94764.91
2023-03-29T04:20:12.958Z,94738.00
2023-03-29T04:25:16.799Z,94753.88
2023-03-29T04:30:26.141Z,94759.50
2023-03-29T04:35:38.023Z,94761.53
2023-03-29T04:40:44.244Z,94753.34
2023-03-29T04:45:56.241Z,94763.41
2023-03-29T04:51:25.105Z,94763.72
2023-03-29T04:56:29.410Z,94763.72
2023-03-29T05:02:05.221Z,94760.56
2023-03-29T05:07:08.028Z,94761.16
2023-03-29T05:12:10.408Z,94763.19
2023-03-29T05:17:28.529Z,94764.56
2023-03-29T05:22:37.248Z,94763.09
2023-03-29T05:27:42.827Z,94760.22
2023-03-29T05:32:47.148Z,94777.28
2023-03-29T05:37:54.016Z,94780.09
2023-03-29T05:42:58.395Z,94783.38
2023-03-29T05:48:01.621Z,94787.91
2023-03-29T05:53:04.427Z,94788.78
2023-03-29T05:58:13.069Z,94787.94
2023-03-29T06:03:21.194Z,94783.31
2023-03-29T06:08:26.595Z,94786.59
2023-03-29T06:13:47.150Z,94794.88
2023-03-29T06:18:49.530Z,94800.00
2023-03-29T06:23:52.036Z,94801.78
2023-03-29T06:28:54.696Z,94813.69
2023-03-29T06:33:58.487Z,94795.97
2023-03-29T06:39:11.817Z,94812.72
2023-03-29T06:44:40.066Z,94816.81
2023-03-29T06:49:53.063Z,94823.59
2023-03-29T06:55:13.183Z,94822.59
2023-03-29T07:00:19.215Z,94821.63
2023-03-29T07:05:52.295Z,94805.13
2023-03-29T07:10:56.759Z,94825.38
2023-03-29T07:16:18.513Z,94836.41
2023-03-29T07:21:37.896Z,94828.44
2023-03-29T07:26:52.141Z,94824.88
2023-03-29T07:32:03.038Z,94824.81
2023-03-29T07:37:11.545Z,94830.03
2023-03-29T07:42:16.509Z,94829.25
2023-03-29T07:47:19.040Z,94825.56
2023-03-29T07:52:22.084Z,94825.94
2023-03-29T07:57:26.861Z,94811.28
2023-03-29T08:02:31.507Z,94825.06
2023-03-29T08:07:37.494Z,94830.28
2023-03-29T08:12:58.427Z,94834.72
2023-03-29T08:18:26.769Z,94834.56
2023-03-29T08:23:29.209Z,94823.06
2023-03-29T08:28:46.430Z,94835.97
2023-03-29T08:33:50.326Z,94837.97
2023-03-29T08:39:11.391Z,94835.69
2023-03-29T08:44:43.277Z,94832.69
2023-03-29T08:49:53.852Z,94833.16
2023-03-29T08:55:03.588Z,94838.69
2023-03-29T09:00:42.211Z,94829.59
2023-03-29T09:05:50.222Z,94828.53
2023-03-29T09:11:24.385Z,94821.38
2023-03-29T09:16:41.299Z,94813.13
2023-03-29T09:21:47.481Z,94808.03
2023-03-29T09:27:05.458Z,94798.66
2023-03-29T09:32:22.782Z,94787.50
2023-03-29T09:37:38.366Z,94799.72
2023-03-29T09:42:41.960Z,94793.91
2023-03-29T09:48:03.559Z,94788.09
2023-03-29T09:53:11.963Z,94778.28
2023-03-29T09:58:22.760Z,94776.69
2023-03-29T10:03:29.911Z,94770.91
2023-03-29T10:08:48.217Z,94763.47
2023-03-29T10:13:55.134Z,94754.56
2023-03-29T10:18:57.385Z,94749.56
2023-03-29T10:23:59.751Z,94761.22
2023-03-29T10:29:04.188Z,94756.19
2023-03-29T10:34:06.788Z,94748.75
2023-03-29T10:39:11.042Z,94751.78
2023-03-29T10:44:33.296Z,94749.34
2023-03-29T10:49:45.315Z,94742.94
2023-03-29T10:54:48.678Z,94735.78
2023-03-29T11:00:08.835Z,94730.00
2023-03-29T11:05:27.765Z,94725.19
2023-03-29T11:10:48.969Z,94727.31
2023-03-29T11:16:00.247Z,94716.53
2023-03-29T11:21:21.263Z,94706.91
2023-03-29T11:26:25.166Z,94702.91
2023-03-29T11:31:56.170Z,94700.44
2023-03-29T11:37:08.022Z,94703.59
2023-03-29T11:42:18.919Z,94699.13
2023-03-29T11:47:23.265Z,94690.69
2023-03-29T11:52:33.931Z,94691.59
2023-03-29T11:57:42.469Z,94672.53
2023-03-29T12:02:58.793Z,94680.34
2023-03-29T12:08:16.663Z,94674.97
2023-03-29T12:13:36.011Z,94667.16
2023-03-29T12:18:45.495Z,94666.38
2023-03-29T12:23:48.483Z,94666.38
2023-03-29T12:29:11.655Z,94664.44
2023-03-29T12:34:16.509Z,94645.41
2023-03-29T12:39:45.375Z,94644.63
2023-03-29T12:45:15.394Z,94653.94
2023-03-29T12:50:33.428Z,94637.59
2023-03-29T12:55:50.665Z,94632.16
2023-03-29T13:01:10.015Z,94625.97
2023-03-29T13:06:13.677Z,94614.69
2023-03-29T13:11:34.122Z,94608.09
2023-03-29T13:16:36.487Z,94594.50
2023-03-29T13:21:49.471Z,94592.09
2023-03-29T13:27:15.590Z,94573.06
2023-03-29T13:32:36.766Z,94575.78
2023-03-29T13:37:42.409Z,94569.19
2023-03-29T13:42:46.724Z,94564.53
2023-03-29T13:48:04.328Z,94538.06
2023-03-29T13:53:26.753Z,94540.59
2023-03-29T13:58:41.932Z,94523.13
2023-03-29T14:03:46.231Z,94519.22
2023-03-29T14:08:49.563Z,94519.06
2023-03-29T14:13:56.126Z,94512.16
2023-03-29T14:19:01.525Z,94518.75
2023-03-29T14:24:10.691Z,94495.44
2023-03-29T14:29:15.536Z,94495.69
2023-03-29T14:34:20.099Z,94496.31
2023-03-29T14:39:24.470Z,94498.25
2023-03-29T14:44:32.040Z,94470.31
2023-03-29T14:49:35.023Z,94465.53
2023-03-29T14:54:38.380Z,94466.00
2023-03-29T14:59:43.124Z,94457.38
2023-03-29T15:04:45.256Z,94461.19
2023-03-29T15:09:47.448Z,94437.00
2023-03-29T15:14:52.060Z,94438.31
2023-03-29T15:19:58.500Z,94446.94
2023-03-29T15:25:04.594Z,94430.09
2023-03-29T15:30:16.901Z,94431.03
2023-03-29T15:35:24.708Z,94426.28
2023-03-29T15:40:37.284Z,94421.19
2023-03-29T15:45:41.476Z,94419.31
2023-03-29T15:50:44.808Z,94404.50
2023-03-29T15:55:59.984Z,94420.94
2023-03-29T16:01:14.926Z,94408.38
2023-03-29T16:06:22.401Z,94395.97
2023-03-29T16:11:24.739Z,94405.09
2023-03-29T16:16:27.337Z,94397.66
2023-03-29T16:21:29.630Z,94389.63
2023-03-29T16:26:32.797Z,94392.28
2023-03-29T16:31:40.486Z,94393.06
2023-03-29T16:36:44.355Z,94384.16
2023-03-29T16:41:49.162Z,94376.56
2023-03-29T16:46:57.906Z,94379.63
2023-03-29T16:52:00.159Z,94382.34
2023-03-29T16:57:02.233Z,94387.13
2023-03-29T17:02:04.260Z,94407.75
2023-03-29T17:07:06.898Z,94399.19
2023-03-29T17:12:09.159Z,94382.56
2023-03-29T17:17:11.380Z,94395.00
2023-03-29T17:22:13.387Z,94384.19
2023-03-29T17:27:16.434Z,94390.88
2023-03-29T17:32:18.559Z,94390.88
2023-03-29T17:37:24.114Z,94383.53
2023-03-29T17:42:26.525Z,94379.28
2023-03-29T17:47:28.689Z,94377.41
2023-03-29T17:52:31.075Z,94378.19
2023-03-29T17:57:33.701Z,94376.28
2023-03-29T18:02:47.401Z,94365.44
2023-03-29T18:07:49.572Z,94365.84
2023-03-29T18:12:52.059Z,94359.66
2023-03-29T18:17:58.945Z,94365.47
2023-03-29T18:23:10.277Z,94370.91
2023-03-29T18:28:14.688Z,94365.06
2023-03-29T18:33:26.260Z,94388.31
2023-03-29T18:38:30.143Z,94392.50
2023-03-29T18:43:43.779Z,94402.94
2023-03-29T18:48:50.193Z,94406.75
2023-03-29T18:54:11.768Z,94410.50
2023-03-29T18:59:20.055Z,94415.53
2023-03-29T19:04:26.819Z,94406.56
2023-03-29T19:09:30.242Z,94426.63
2023-03-29T19:14:41.521Z,94421.88
2023-03-29T19:25:18.538Z,94453.47
2023-03-29T19:37:34.677Z,94471.28
2023-03-29T19:42:41.746Z,94468.44
2023-03-29T19:47:47.757Z,94479.66
2023-03-29T19:52:50.521Z,94475.31
2023-03-29T19:57:52.800Z,94497.75
2023-03-29T20:02:56.933Z,94480.97
2023-03-29T20:07:59.022Z,94495.31
2023-03-29T20:13:02.165Z,94498.78
2023-03-29T20:18:05.459Z,94510.66
2023-03-29T20:23:16.954Z,94517.13
2023-03-29T20:28:19.909Z,94528.13
2023-03-29T20:33:22.550Z,94528.91
2023-03-29T20:38:24.890Z,94529.06
2023-03-29T20:43:27.456Z,94552.63
2023-03-29T20:48:38.464Z,94546.28
2023-03-29T20:53:44.104Z,94550.75
2023-03-29T20:58:47.848Z,94565.66
2023-03-29T21:03:49.985Z,94565.44
2023-03-29T21:08:52.747Z,94563.41
2023-03-29T21:13:55.406Z,94567.84
2023-03-29T21:18:57.534Z,94556.59
2023-03-29T21:23:59.828Z,94562.72
2023-03-29T21:29:19.409Z,94553.91
2023-03-29T21:34:45.326Z,94558.31
2023-03-29T21:39:47.409Z,94560.56
2023-03-29T21:44:49.475Z,94537.88
2023-03-29T21:49:51.943Z,94559.03
2023-03-29T21:54:54.083Z,94537.78
2023-03-29T21:59:56.880Z,94540.16
2023-03-29T22:04:59.131Z,94551.31
2023-03-29T22:10:05.178Z,94550.59
2023-03-29T22:15:11.795Z,94531.84
2023-03-29T22:20:15.096Z,94543.34
2023-03-29T22:25:25.558Z,94552.25
2023-03-29T22:30:28.807Z,94550.38
2023-03-29T22:35:33.615Z,94559.09
2023-03-29T22:40:40.740Z,94561.22
2023-03-29T22:45:44.717Z,94553.81
2023-03-29T22:50:47.555Z,94563.03
2023-03-29T22:55:49.753Z,94563.34
2023-03-29T23:00:52.701Z,94575.06
2023-03-29T23:05:57.124Z,94582.44
2023-03-29T23:11:00.530Z,94568.53
2023-03-29T23:16:06.048Z,94576.16
2023-03-29T23:21:12.820Z,94580.31
2023-03-29T23:26:19.702Z,94556.91
2023-03-29T23:31:25.091Z,94569.72
2023-03-29T23:36:32.855Z,94583.56
2023-03-29T23:41:37.695Z,94590.88
2023-03-29T23:46:43.299Z,94579.22
2023-03-29T23:51:49.371Z,94572.91
2023-03-29T23:56:54.311Z,94587.09
